Time;durP1;ratioP1;P1;durP2;ratioP2;P2;SDS_P1;SDS_P2;PMS_P1;PMS_P2;Temp;Humidity;BMP_temperature;BMP_pressure;BME280_temperature;BME280_humidity;BME280_pressure;Samples;Min_cycle;Max_cycle;Signal;HPM_P1;HPM_P2
2021/08/11 00:00:24;;;;;;;4.03;1.90;;;14.50;99.90;;;;;;20656844;28;20763;-45
2021/08/11 00:10:25;;;;;;;9.13;2.00;;;14.50;99.90;;;;;;20654151;28;20045;-45
2021/08/11 00:20:26;;;;;;;4.70;1.92;;;14.70;99.90;;;;;;20658264;28;20049;-45
2021/08/11 00:30:28;;;;;;;3.17;1.60;;;14.60;99.90;;;;;;20638443;28;20050;-45
2021/08/11 00:40:31;;;;;;;5.60;1.33;;;14.50;99.90;;;;;;20654496;28;20041;-45
2021/08/11 00:50:32;;;;;;;7.82;1.52;;;14.50;99.90;;;;;;20657394;28;20046;-45
2021/08/11 01:00:34;;;;;;;4.53;2.13;;;14.50;99.90;;;;;;20670325;28;20045;-45
2021/08/11 01:10:36;;;;;;;3.80;1.67;;;14.60;99.90;;;;;;20665798;28;20038;-45
2021/08/11 01:20:43;;;;;;;4.97;1.88;;;14.70;99.90;;;;;;20664259;28;20574;-45
2021/08/11 01:31:07;;;;;;;3.73;1.63;;;14.60;99.90;;;;;;20670250;28;20053;-45
2021/08/11 01:41:12;;;;;;;5.32;1.60;;;14.70;99.90;;;;;;20667759;28;20041;-45
2021/08/11 01:51:13;;;;;;;3.83;2.17;;;14.60;99.90;;;;;;20661808;28;20057;-45
2021/08/11 02:01:14;;;;;;;5.88;2.03;;;14.50;99.90;;;;;;20665398;28;20047;-45
2021/08/11 02:11:16;;;;;;;4.20;1.70;;;14.40;99.90;;;;;;20669415;28;20049;-45
2021/08/11 02:21:17;;;;;;;4.00;1.45;;;14.40;99.90;;;;;;20663232;28;20041;-45
2021/08/11 02:31:50;;;;;;;3.83;1.70;;;14.40;99.90;;;;;;20659359;28;20038;-45
2021/08/11 02:42:00;;;;;;;5.50;1.77;;;14.70;99.90;;;;;;20658957;28;21179;-45
2021/08/11 02:52:02;;;;;;;3.92;2.00;;;14.70;99.90;;;;;;20660109;28;20069;-45
2021/08/11 03:02:03;;;;;;;12.15;3.20;;;14.70;99.90;;;;;;20661219;28;20042;-45
2021/08/11 03:12:09;;;;;;;6.75;3.08;;;14.70;99.90;;;;;;20658033;28;20042;-45
2021/08/11 03:22:11;;;;;;;6.65;3.25;;;14.60;99.90;;;;;;20657984;28;20104;-45
2021/08/11 03:32:12;;;;;;;7.50;2.67;;;14.70;99.90;;;;;;20656514;28;20396;-45
2021/08/11 03:42:13;;;;;;;7.13;2.28;;;14.60;99.90;;;;;;20658936;28;20042;-45
2021/08/11 03:52:14;;;;;;;8.23;2.88;;;14.50;99.90;;;;;;20658471;28;20050;-45
2021/08/11 04:02:15;;;;;;;8.52;2.50;;;14.40;99.90;;;;;;20656629;28;20037;-45
2021/08/11 04:12:17;;;;;;;6.00;2.75;;;14.30;99.90;;;;;;20654173;28;20045;-45
2021/08/11 04:22:18;;;;;;;7.15;2.63;;;14.20;99.90;;;;;;20654451;28;20049;-45
2021/08/11 04:32:19;;;;;;;8.57;3.08;;;14.20;99.90;;;;;;20663749;28;20054;-45
2021/08/11 04:42:21;;;;;;;10.32;4.85;;;14.40;99.90;;;;;;20671307;28;21404;-45
2021/08/11 04:52:22;;;;;;;8.30;3.80;;;14.50;99.90;;;;;;20643725;28;20050;-45
2021/08/11 05:02:23;;;;;;;7.78;4.75;;;14.60;99.90;;;;;;20669897;28;20485;-45
2021/08/11 05:12:24;;;;;;;12.80;4.63;;;14.70;99.90;;;;;;20665118;28;20412;-45
2021/08/11 05:22:25;;;;;;;10.48;4.05;;;14.80;99.90;;;;;;20666209;28;20226;-45
2021/08/11 05:32:27;;;;;;;10.57;3.63;;;14.90;99.90;;;;;;20670435;28;20038;-45
2021/08/11 05:42:28;;;;;;;8.25;3.80;;;15.10;99.90;;;;;;20670365;28;20037;-45
2021/08/11 05:52:29;;;;;;;10.02;4.13;;;15.30;99.90;;;;;;20666643;28;20051;-45
2021/08/11 06:02:30;;;;;;;9.20;3.95;;;16.30;99.90;;;;;;20666440;28;20518;-45
2021/08/11 06:12:31;;;;;;;12.68;3.92;;;16.10;99.90;;;;;;20672104;28;20038;-45
2021/08/11 06:22:32;;;;;;;13.98;4.10;;;16.10;99.90;;;;;;20674518;28;20034;-45
2021/08/11 06:32:34;;;;;;;10.80;4.40;;;16.30;99.90;;;;;;20671832;28;20045;-45
2021/08/11 06:42:35;;;;;;;8.82;4.07;;;16.70;99.90;;;;;;20670522;28;20707;-45
2021/08/11 06:52:36;;;;;;;9.75;3.90;;;16.70;99.90;;;;;;20654143;28;20061;-45
2021/08/11 07:02:38;;;;;;;10.55;4.38;;;16.90;99.90;;;;;;20659724;28;20044;-45
2021/08/11 07:12:39;;;;;;;8.73;3.10;;;17.20;99.90;;;;;;20664520;28;20048;-45
2021/08/11 07:22:40;;;;;;;9.75;3.53;;;17.30;99.90;;;;;;20665382;28;20045;-45
2021/08/11 07:32:43;;;;;;;11.07;3.10;;;17.80;99.90;;;;;;20664841;28;20042;-45
2021/08/11 07:42:44;;;;;;;5.43;2.30;;;18.10;99.90;;;;;;20662413;28;20034;-45
2021/08/11 07:52:46;;;;;;;4.78;2.33;;;18.30;99.90;;;;;;20623819;28;1169056;-45
2021/08/11 08:02:47;;;;;;;5.13;2.95;;;18.40;99.90;;;;;;20652187;28;20030;-45
2021/08/11 08:12:48;;;;;;;6.10;2.30;;;18.60;99.90;;;;;;20682905;28;20053;-45
2021/08/11 08:22:50;;;;;;;4.95;2.10;;;18.80;99.90;;;;;;20680155;28;20034;-45
2021/08/11 08:32:51;;;;;;;5.85;1.92;;;18.80;99.90;;;;;;20681939;28;20038;-45
2021/08/11 08:42:52;;;;;;;3.80;1.88;;;19.00;99.90;;;;;;20678839;28;20037;-45
2021/08/11 08:52:54;;;;;;;5.78;1.75;;;19.40;99.90;;;;;;20678498;28;20042;-45
2021/08/11 09:02:55;;;;;;;4.25;1.73;;;19.70;99.90;;;;;;20678025;28;20053;-45
2021/08/11 09:13:03;;;;;;;5.80;1.83;;;20.10;99.90;;;;;;20678301;28;20041;-45
2021/08/11 09:23:05;;;;;;;6.40;1.80;;;20.40;99.90;;;;;;20675959;28;20041;-45
2021/08/11 09:33:06;;;;;;;4.03;1.80;;;20.70;99.90;;;;;;20675397;28;20045;-45
2021/08/11 09:43:09;;;;;;;4.25;1.17;;;21.00;99.90;;;;;;20674296;28;20486;-46
2021/08/11 09:53:11;;;;;;;2.30;1.20;;;21.40;99.90;;;;;;20669622;28;20049;-46
2021/08/11 10:03:12;;;;;;;2.95;1.50;;;21.50;99.90;;;;;;20674473;28;20393;-46
2021/08/11 10:13:17;;;;;;;4.05;1.33;;;22.30;99.90;;;;;;20671879;28;20069;-46
2021/08/11 10:23:20;;;;;;;2.85;1.23;;;22.60;99.90;;;;;;20671133;28;20069;-46
2021/08/11 10:33:21;;;;;;;3.78;1.25;;;22.40;99.90;;;;;;20670263;28;21253;-46
2021/08/11 10:43:23;;;;;;;5.00;1.52;;;22.50;99.90;;;;;;20670085;28;20042;-45
2021/08/11 10:53:25;;;;;;;5.32;1.25;;;23.20;99.90;;;;;;20663988;28;20045;-46
2021/08/11 11:03:48;;;;;;;3.13;0.95;;;23.30;99.90;;;;;;20668309;28;20371;-46
2021/08/11 11:13:49;;;;;;;3.22;1.10;;;23.60;99.90;;;;;;20665867;28;20038;-46
2021/08/11 11:23:50;;;;;;;4.50;1.67;;;24.10;99.90;;;;;;20668032;28;20030;-46
2021/08/11 11:33:51;;;;;;;3.88;1.17;;;24.30;99.90;;;;;;20666756;28;20042;-46
2021/08/11 11:43:52;;;;;;;6.07;1.52;;;25.10;99.90;;;;;;20663666;28;20382;-46
2021/08/11 11:54:04;;;;;;;3.92;1.38;;;24.90;99.90;;;;;;20665594;28;20046;-46
2021/08/11 12:04:06;;;;;;;2.75;0.95;;;24.40;99.90;;;;;;20660043;28;20045;-46
2021/08/11 12:14:07;;;;;;;7.28;1.55;;;24.30;99.90;;;;;;20665338;28;20049;-45
2021/08/11 12:24:08;;;;;;;5.30;1.75;;;24.70;99.90;;;;;;20666664;28;20041;-46
2021/08/11 12:34:10;;;;;;;7.50;1.42;;;25.50;99.90;;;;;;20662733;28;20047;-46
2021/08/11 12:44:21;;;;;;;4.20;1.25;;;25.50;99.90;;;;;;20663605;28;20038;-46
2021/08/11 12:54:22;;;;;;;5.57;1.90;;;25.80;99.90;;;;;;20671979;28;20050;-46
2021/08/11 13:04:25;;;;;;;2.90;1.23;;;25.80;99.90;;;;;;20682529;28;20038;-46
2021/08/11 13:14:53;;;;;;;2.22;0.80;;;26.10;99.90;;;;;;20665577;28;20050;-46
2021/08/11 13:24:54;;;;;;;2.15;0.75;;;26.00;99.90;;;;;;20683303;28;20042;-46
2021/08/11 13:34:55;;;;;;;3.45;1.30;;;26.00;99.90;;;;;;20686513;28;20061;-46
2021/08/11 13:44:56;;;;;;;2.78;1.25;;;25.60;99.90;;;;;;20682508;28;20035;-46
2021/08/11 13:54:57;;;;;;;3.58;1.25;;;26.10;99.90;;;;;;20676814;28;20039;-46
2021/08/11 14:04:58;;;;;;;2.60;1.40;;;26.60;99.90;;;;;;20680805;28;20034;-46
2021/08/11 14:15:00;;;;;;;4.18;1.30;;;26.30;99.90;;;;;;20670025;28;20058;-46
2021/08/11 14:25:01;;;;;;;2.95;1.10;;;26.20;99.90;;;;;;20676881;28;20045;-46
2021/08/11 14:35:02;;;;;;;2.55;1.10;;;25.80;99.90;;;;;;20671362;28;20051;-46
2021/08/11 14:45:06;;;;;;;2.67;1.27;;;25.80;99.90;;;;;;20677484;28;20061;-46
2021/08/11 14:55:07;;;;;;;2.55;0.90;;;25.60;99.90;;;;;;20677028;28;20053;-46
2021/08/11 15:05:09;;;;;;;2.33;1.05;;;25.30;99.90;;;;;;20676619;28;20038;-46
2021/08/11 15:15:10;;;;;;;3.65;1.05;;;25.00;99.90;;;;;;20667526;28;20037;-46
2021/08/11 15:25:12;;;;;;;1.85;0.77;;;24.90;99.90;;;;;;20661222;28;20792;-46
2021/08/11 15:35:13;;;;;;;4.43;1.40;;;24.80;99.90;;;;;;20672439;28;20046;-46
2021/08/11 15:45:14;;;;;;;3.17;1.00;;;24.70;99.90;;;;;;20675077;28;20034;-46
2021/08/11 15:55:16;;;;;;;2.50;0.80;;;24.80;99.90;;;;;;20668128;28;20069;-46
2021/08/11 16:05:19;;;;;;;2.33;0.77;;;24.60;99.90;;;;;;20665784;28;20037;-46
2021/08/11 16:15:21;;;;;;;1.80;0.77;;;24.50;99.90;;;;;;20668908;28;20310;-46
2021/08/11 16:25:22;;;;;;;2.67;1.13;;;24.20;99.90;;;;;;20677747;28;20038;-46
2021/08/11 16:35:23;;;;;;;2.00;0.63;;;24.20;99.90;;;;;;20690123;28;20486;-46
2021/08/11 16:45:25;;;;;;;2.00;0.98;;;23.90;99.90;;;;;;20678907;28;20049;-46
2021/08/11 16:55:27;;;;;;;2.33;1.23;;;23.80;99.90;;;;;;20684046;28;20046;-46
2021/08/11 17:05:28;;;;;;;2.90;1.02;;;23.80;99.90;;;;;;20677629;28;20045;-46
2021/08/11 17:15:29;;;;;;;4.40;1.60;;;23.50;99.90;;;;;;20676443;28;20041;-46
2021/08/11 17:25:30;;;;;;;4.70;1.55;;;23.50;99.90;;;;;;20676397;28;20037;-46
2021/08/11 17:35:31;;;;;;;4.95;1.85;;;23.10;99.90;;;;;;20676321;28;20046;-46
2021/08/11 17:45:32;;;;;;;3.80;1.73;;;22.60;99.90;;;;;;20676892;28;20034;-45
2021/08/11 17:55:33;;;;;;;3.55;1.70;;;22.50;99.90;;;;;;20678971;28;20042;-45
2021/08/11 18:05:35;;;;;;;5.68;1.95;;;22.40;99.90;;;;;;20678068;28;20519;-45
2021/08/11 18:15:36;;;;;;;14.27;3.17;;;21.90;99.90;;;;;;20676358;28;20046;-45
2021/08/11 18:25:57;;;;;;;4.82;2.05;;;21.80;99.90;;;;;;20677493;28;20045;-45
2021/08/11 18:36:19;;;;;;;4.10;1.65;;;21.50;99.90;;;;;;20672823;28;20504;-45
2021/08/11 18:46:41;;;;;;;3.78;1.65;;;21.20;99.90;;;;;;20636514;28;20085;-45
2021/08/11 18:57:02;;;;;;;2.80;1.33;;;21.10;99.90;;;;;;20659843;28;20086;-45
2021/08/11 19:07:24;;;;;;;4.13;1.60;;;20.90;99.90;;;;;;20658290;28;20069;-45
2021/08/11 19:17:45;;;;;;;3.72;2.03;;;20.60;99.90;;;;;;20642457;28;20050;-45
2021/08/11 19:28:06;;;;;;;3.88;1.50;;;20.30;99.90;;;;;;20654224;28;20049;-45
2021/08/11 19:38:28;;;;;;;9.95;1.95;;;20.10;99.90;;;;;;20663165;28;20053;-45
2021/08/11 19:48:50;;;;;;;5.55;1.95;;;19.90;99.90;;;;;;20652454;28;20077;-45
2021/08/11 19:59:11;;;;;;;3.92;1.90;;;19.60;99.90;;;;;;20672289;28;20078;-45
2021/08/11 20:09:32;;;;;;;9.50;2.60;;;19.40;99.90;;;;;;20685025;28;20385;-45
2021/08/11 20:19:54;;;;;;;4.78;2.10;;;19.30;99.90;;;;;;20672883;28;20042;-44
2021/08/11 20:30:16;;;;;;;6.13;1.90;;;19.00;99.90;;;;;;20683910;28;20493;-46
2021/08/11 20:40:37;;;;;;;3.88;1.70;;;18.90;99.90;;;;;;20673183;28;20066;-45
2021/08/11 20:50:58;;;;;;;5.90;2.42;;;18.70;99.90;;;;;;20656173;28;20050;-45
2021/08/11 21:01:20;;;;;;;4.32;1.70;;;18.60;99.90;;;;;;20651640;28;20045;-45
2021/08/11 21:11:41;;;;;;;4.15;1.80;;;18.50;99.90;;;;;;20661713;28;20121;-45
2021/08/11 21:22:03;;;;;;;4.90;2.20;;;18.30;99.90;;;;;;20628830;28;20061;-45
2021/08/11 21:32:24;;;;;;;5.35;1.30;;;18.10;99.90;;;;;;20631211;28;20035;-45
2021/08/11 21:42:46;;;;;;;4.03;1.73;;;18.00;99.90;;;;;;20653809;28;20053;-45
2021/08/11 21:53:07;;;;;;;4.05;1.52;;;18.00;99.90;;;;;;20655726;28;20176;-44
2021/08/11 22:03:28;;;;;;;3.88;1.52;;;17.80;99.90;;;;;;20682952;28;20053;-44
2021/08/11 22:13:50;;;;;;;5.15;1.77;;;17.70;99.90;;;;;;20642493;28;20603;-44
2021/08/11 22:24:11;;;;;;;3.35;1.70;;;17.50;99.90;;;;;;20639026;28;20030;-44
2021/08/11 22:34:32;;;;;;;3.17;1.52;;;17.40;99.90;;;;;;20638640;28;20054;-45
2021/08/11 22:44:54;;;;;;;3.30;1.50;;;17.30;99.90;;;;;;20668319;28;20034;-45
2021/08/11 22:55:16;;;;;;;3.67;1.67;;;17.30;99.90;;;;;;20657525;28;20050;-45
2021/08/11 23:05:38;;;;;;;3.80;1.50;;;17.20;99.90;;;;;;20657881;28;20042;-45
2021/08/11 23:15:59;;;;;;;3.92;1.65;;;17.20;99.90;;;;;;20675240;28;20046;-44
2021/08/11 23:26:20;;;;;;;3.55;1.90;;;17.00;99.90;;;;;;20667937;28;20049;-44
2021/08/11 23:36:42;;;;;;;3.60;1.58;;;17.00;99.90;;;;;;20639546;28;20043;-45
2021/08/11 23:47:03;;;;;;;3.53;1.92;;;17.00;99.90;;;;;;20632474;28;20519;-44
2021/08/11 23:57:25;;;;;;;4.78;2.17;;;16.90;99.90;;;;;;20647804;28;20058;-44
